aviador You're here:

CYDL Decoded Metar

DEASE LAKE in BC, CANADA
Report Time2018-06-17 21:00:00
UTC Time2018-06-17 21:37:51
Flight Rules vfr VFR
Wind180° at 08 kt
W.Decomp.*RWY 20: 5.8 kt HW 5.6 kt LCW
W.Rank180° ranks 17
Current wind is above 180° avg. (5.6)
Visibility9999 m
Phenomena:N/A
Clouds:N/A
Expected CloudBase > 6,400 ft AGL from Temp-Dew spread
CeilingNone
Temp22°C (ISA +12)
Dew Point06°C (36% RH)
AAT18.3°C
QNH1018 hPa
Density Alt4,068 ft
Elevation2,677 ft
Report Wrong Elevation
Raw Report
METAR CYDL 172100Z AUTO 18008KT 130V290 9SM CLR 22/06 A3007 RMK
SLP178 DENSITY ALT 3900FT=

Extra information for CYDL:More info

Metar Taf Metar & Taf Last 4 Metars F.Rules Stats Wind Profile Meteogram Temp Stats Airport Information Weather charts Add Link Nearby VenuesMetar ALERT Operation Metar Decoded Social comments